createdAt,value
2019-04-25T00:01:14.206Z,9.00
2019-04-25T00:05:15.270Z,9.10
2019-04-25T00:09:22.198Z,9.10
2019-04-25T00:13:21.772Z,9.00
2019-04-25T00:17:40.493Z,8.90
2019-04-25T00:21:57.811Z,8.90
2019-04-25T00:26:05.071Z,8.70
2019-04-25T00:30:05.084Z,8.70
2019-04-25T00:34:09.362Z,8.70
2019-04-25T00:38:08.039Z,8.80
2019-04-25T00:42:08.506Z,8.90
2019-04-25T00:46:11.300Z,9.00
2019-04-25T00:50:20.071Z,8.90
2019-04-25T00:54:20.023Z,8.90
2019-04-25T00:58:23.113Z,8.80
2019-04-25T01:02:36.910Z,8.70
2019-04-25T01:06:37.431Z,8.60
2019-04-25T01:10:36.020Z,8.50
2019-04-25T01:14:35.446Z,8.60
2019-04-25T01:18:37.641Z,8.60
2019-04-25T01:22:43.984Z,8.50
2019-04-25T01:26:41.791Z,8.50
2019-04-25T01:30:41.111Z,8.50
2019-04-25T01:35:00.468Z,8.60
2019-04-25T01:39:04.311Z,8.60
2019-04-25T01:43:10.530Z,8.60
2019-04-25T01:47:12.079Z,8.70
2019-04-25T01:51:10.785Z,8.80
2019-04-25T01:55:09.876Z,8.90
2019-04-25T01:59:08.504Z,9.00
2019-04-25T02:03:07.141Z,9.10
2019-04-25T02:07:07.138Z,9.10
2019-04-25T02:11:14.199Z,9.10
2019-04-25T02:15:14.990Z,9.10
2019-04-25T02:19:19.693Z,9.10
2019-04-25T02:23:18.245Z,9.20
2019-04-25T02:27:16.865Z,9.20
2019-04-25T02:35:35.247Z,9.10
2019-04-25T02:39:36.863Z,9.10
2019-04-25T02:43:35.178Z,9.20
2019-04-25T02:47:58.506Z,9.20
2019-04-25T02:52:01.205Z,9.30
2019-04-25T02:56:00.233Z,9.30
2019-04-25T03:00:00.126Z,9.30
2019-04-25T03:04:00.846Z,9.40
2019-04-25T03:08:08.298Z,9.40
2019-04-25T03:12:10.068Z,9.50
2019-04-25T03:16:11.049Z,9.40
2019-04-25T03:20:17.051Z,9.40
2019-04-25T03:24:18.057Z,9.40
2019-04-25T03:28:17.138Z,9.40
2019-04-25T03:32:29.408Z,9.40
2019-04-25T03:36:33.839Z,9.40
2019-04-25T03:40:31.729Z,9.50
2019-04-25T03:44:33.774Z,9.60
2019-04-25T03:48:35.215Z,9.50
2019-04-25T03:52:37.526Z,9.40
2019-04-25T03:56:36.939Z,9.50
2019-04-25T04:00:36.416Z,9.50
2019-04-25T04:04:38.199Z,9.50
2019-04-25T04:08:44.303Z,9.50
2019-04-25T04:12:48.019Z,9.60
2019-04-25T04:17:06.396Z,9.70
2019-04-25T04:21:16.178Z,9.70
2019-04-25T04:25:16.701Z,9.70
2019-04-25T04:29:16.919Z,9.80
2019-04-25T04:33:29.823Z,9.70
2019-04-25T04:37:18.950Z,9.80
2019-04-25T04:41:25.109Z,9.80
2019-04-25T04:45:30.021Z,9.80
2019-04-25T04:49:47.973Z,9.80
2019-04-25T04:53:48.529Z,9.80
2019-04-25T04:57:50.523Z,9.90
2019-04-25T05:01:56.538Z,9.90
2019-04-25T05:05:56.732Z,10.00
2019-04-25T05:09:55.257Z,10.10
2019-04-25T05:13:57.027Z,10.20
2019-04-25T05:18:01.671Z,10.30
2019-04-25T05:22:08.918Z,10.50
2019-04-25T05:26:17.229Z,10.70
2019-04-25T05:30:19.483Z,10.90
2019-04-25T05:34:25.881Z,11.10
2019-04-25T05:38:30.661Z,11.10
2019-04-25T05:42:36.177Z,10.90
2019-04-25T05:46:43.753Z,10.80
2019-04-25T05:50:50.766Z,10.90
2019-04-25T05:54:54.051Z,11.10
2019-04-25T05:58:59.559Z,11.50
2019-04-25T06:02:58.022Z,11.80
2019-04-25T06:07:00.592Z,11.90
2019-04-25T06:11:13.462Z,12.00
2019-04-25T06:15:14.222Z,12.10
2019-04-25T06:19:18.479Z,12.30
2019-04-25T06:23:34.039Z,12.40
2019-04-25T06:27:35.207Z,12.60
2019-04-25T06:31:39.177Z,12.70
2019-04-25T06:35:38.270Z,12.80
2019-04-25T06:39:48.707Z,13.10
2019-04-25T06:43:49.364Z,13.40
2019-04-25T06:47:49.534Z,13.70
2019-04-25T06:51:54.704Z,13.80
2019-04-25T06:55:56.908Z,13.80
2019-04-25T06:59:56.253Z,13.90
2019-04-25T07:03:59.862Z,14.00
2019-04-25T07:08:10.538Z,14.00
2019-04-25T07:12:06.921Z,13.90
2019-04-25T07:16:09.287Z,13.70
2019-04-25T07:20:11.341Z,13.70
2019-04-25T07:24:16.107Z,13.90
2019-04-25T07:28:31.468Z,14.20
2019-04-25T07:32:34.875Z,14.60
2019-04-25T07:36:37.340Z,14.60
2019-04-25T07:40:36.871Z,14.70
2019-04-25T07:44:49.411Z,14.90
2019-04-25T07:48:37.268Z,15.00
2019-04-25T07:52:36.371Z,15.10
2019-04-25T07:56:35.554Z,15.20
2019-04-25T08:00:37.645Z,15.30
2019-04-25T08:04:37.052Z,15.60
2019-04-25T08:08:36.095Z,15.60
2019-04-25T08:12:44.132Z,15.80
2019-04-25T08:16:46.177Z,16.30
2019-04-25T08:20:46.886Z,16.70
2019-04-25T08:24:46.023Z,16.40
2019-04-25T08:28:54.995Z,16.00
2019-04-25T08:32:50.966Z,15.60
2019-04-25T08:36:52.168Z,15.80
2019-04-25T08:40:55.716Z,16.20
2019-04-25T08:44:54.513Z,16.60
2019-04-25T08:49:06.346Z,16.70
2019-04-25T08:53:15.470Z,16.70
2019-04-25T08:57:21.500Z,16.70
2019-04-25T09:01:40.596Z,16.40
2019-04-25T09:05:45.987Z,16.50
2019-04-25T09:09:43.987Z,17.00
2019-04-25T09:13:56.042Z,17.60
2019-04-25T09:17:55.780Z,18.00
2019-04-25T09:22:00.354Z,18.10
2019-04-25T09:25:59.500Z,17.90
2019-04-25T09:29:59.743Z,18.00
2019-04-25T09:33:58.668Z,18.10
2019-04-25T09:37:57.250Z,18.90
2019-04-25T09:42:04.262Z,19.40
2019-04-25T09:46:09.899Z,19.10
2019-04-25T09:50:29.218Z,18.20
2019-04-25T09:54:38.012Z,18.00
2019-04-25T09:58:34.723Z,18.10
2019-04-25T10:02:40.268Z,18.80
2019-04-25T10:06:40.687Z,19.10
2019-04-25T10:10:42.459Z,19.90
2019-04-25T10:14:49.859Z,20.10
2019-04-25T10:19:00.190Z,20.40
2019-04-25T10:22:59.011Z,20.30
2019-04-25T10:27:01.234Z,20.00
2019-04-25T10:31:00.171Z,19.50
2019-04-25T10:34:58.885Z,19.20
2019-04-25T10:39:11.011Z,19.30
2019-04-25T10:43:14.164Z,19.50
2019-04-25T10:47:18.190Z,19.40
2019-04-25T10:51:16.723Z,19.30
2019-04-25T10:55:19.738Z,19.80
2019-04-25T10:59:32.835Z,19.90
2019-04-25T11:03:49.395Z,20.50
2019-04-25T11:07:50.998Z,20.90
2019-04-25T11:11:52.700Z,20.50
2019-04-25T11:15:52.000Z,20.20
2019-04-25T11:19:51.230Z,19.90
2019-04-25T11:23:50.146Z,20.00
2019-04-25T11:27:49.915Z,20.40
2019-04-25T11:31:50.935Z,21.00
2019-04-25T11:35:55.992Z,21.40
2019-04-25T11:39:56.126Z,21.30
2019-04-25T11:44:03.490Z,21.70
2019-04-25T11:48:02.813Z,21.60
2019-04-25T11:52:28.167Z,20.90
2019-04-25T11:56:30.033Z,21.00
2019-04-25T12:00:36.540Z,21.70
2019-04-25T12:04:39.688Z,22.10
2019-04-25T12:08:41.038Z,21.90
2019-04-25T12:12:48.467Z,21.50
2019-04-25T12:16:54.982Z,21.40
2019-04-25T12:20:54.888Z,21.40
2019-04-25T12:24:54.687Z,21.10
2019-04-25T12:28:59.721Z,21.10
2019-04-25T12:33:00.959Z,21.00
2019-04-25T12:37:01.062Z,20.90
2019-04-25T12:41:01.667Z,21.00
2019-04-25T12:45:14.143Z,21.30
2019-04-25T12:49:09.609Z,21.50
2019-04-25T12:53:13.794Z,21.60
2019-04-25T12:57:14.410Z,21.80
2019-04-25T13:01:16.526Z,22.00
2019-04-25T13:05:15.378Z,22.10
2019-04-25T13:09:17.648Z,22.00
2019-04-25T13:13:18.163Z,22.60
2019-04-25T13:17:24.052Z,22.70
2019-04-25T13:21:23.459Z,22.90
2019-04-25T13:25:50.164Z,23.00
2019-04-25T13:29:43.316Z,23.20
2019-04-25T13:33:48.085Z,23.70
2019-04-25T13:37:49.696Z,23.70
2019-04-25T13:41:48.730Z,23.80
2019-04-25T13:45:47.427Z,23.00
2019-04-25T13:49:48.259Z,22.30
2019-04-25T13:53:51.396Z,22.20
2019-04-25T13:57:55.162Z,22.80
2019-04-25T14:01:57.563Z,23.50
2019-04-25T14:06:00.328Z,23.50
2019-04-25T14:10:03.368Z,23.40
2019-04-25T14:14:02.304Z,23.50
2019-04-25T14:18:05.315Z,23.90
2019-04-25T14:22:06.000Z,24.60
2019-04-25T14:26:05.055Z,24.30
2019-04-25T14:30:07.898Z,24.00
2019-04-25T14:34:13.216Z,24.00
2019-04-25T14:38:13.908Z,24.30
2019-04-25T14:42:19.986Z,25.50
2019-04-25T14:46:23.451Z,27.70
2019-04-25T14:50:22.606Z,27.90
2019-04-25T14:54:36.000Z,25.80
2019-04-25T14:58:36.191Z,24.60
2019-04-25T15:02:54.682Z,23.40
2019-04-25T15:06:55.288Z,22.70
2019-04-25T15:11:05.903Z,22.00
2019-04-25T15:15:11.479Z,21.80
2019-04-25T15:19:16.577Z,21.60
2019-04-25T15:23:19.554Z,21.50
2019-04-25T15:27:30.586Z,21.50
2019-04-25T15:31:30.130Z,21.70
2019-04-25T15:35:39.451Z,21.80
2019-04-25T15:39:55.706Z,21.90
2019-04-25T15:44:19.438Z,21.80
2019-04-25T15:48:24.230Z,21.50
2019-04-25T15:52:26.760Z,21.40
2019-04-25T15:56:28.635Z,21.20
2019-04-25T16:00:40.310Z,21.10
2019-04-25T16:04:42.093Z,20.90
2019-04-25T16:08:42.106Z,21.10
2019-04-25T16:12:40.675Z,21.40
2019-04-25T16:16:42.195Z,21.40
2019-04-25T16:20:44.446Z,21.40
2019-04-25T16:24:44.753Z,21.50
2019-04-25T16:28:51.314Z,21.30
2019-04-25T16:32:50.223Z,21.10
2019-04-25T16:36:48.863Z,20.80
2019-04-25T16:40:57.414Z,20.50
2019-04-25T16:44:56.696Z,20.40
2019-04-25T16:48:56.830Z,20.20
2019-04-25T16:53:04.320Z,20.00
2019-04-25T16:57:03.235Z,19.90
2019-04-25T17:01:06.960Z,20.00
2019-04-25T17:05:09.084Z,19.90
2019-04-25T17:09:11.121Z,19.70
2019-04-25T17:13:16.404Z,19.50
2019-04-25T17:17:16.594Z,19.30
2019-04-25T17:21:21.683Z,19.10
2019-04-25T17:25:22.443Z,19.00
2019-04-25T17:29:25.820Z,19.00
2019-04-25T17:33:35.678Z,19.00
2019-04-25T17:37:38.510Z,19.10
2019-04-25T17:41:38.384Z,19.00
2019-04-25T17:45:39.100Z,18.80
2019-04-25T17:49:37.892Z,18.60
2019-04-25T17:53:39.085Z,18.40
2019-04-25T17:57:47.322Z,18.10
2019-04-25T18:02:07.273Z,17.90
2019-04-25T18:06:06.319Z,17.70
2019-04-25T18:10:12.894Z,17.50
2019-04-25T18:14:11.849Z,17.30
2019-04-25T18:18:28.303Z,17.10
2019-04-25T18:22:49.998Z,17.00
2019-04-25T18:27:03.801Z,16.80
2019-04-25T18:31:06.926Z,16.70
2019-04-25T18:35:17.658Z,16.50
2019-04-25T18:39:21.589Z,16.40
2019-04-25T18:43:24.549Z,16.30
2019-04-25T18:47:23.130Z,16.10
2019-04-25T18:51:28.212Z,16.00
2019-04-25T18:55:50.173Z,15.80
2019-04-25T18:59:59.053Z,15.80
2019-04-25T19:04:15.188Z,15.70
2019-04-25T19:08:14.374Z,15.60
2019-04-25T19:12:22.983Z,15.50
2019-04-25T19:16:21.588Z,15.40
2019-04-25T19:20:20.228Z,15.30
2019-04-25T19:24:18.884Z,15.30
2019-04-25T19:28:18.747Z,15.20
2019-04-25T19:32:19.901Z,15.10
2019-04-25T19:36:19.310Z,15.10
2019-04-25T19:40:36.447Z,15.00
2019-04-25T19:44:36.304Z,14.90
2019-04-25T19:48:34.966Z,14.50
2019-04-25T19:52:33.444Z,14.10
2019-04-25T19:56:36.462Z,13.80
2019-04-25T20:00:37.077Z,13.80
2019-04-25T20:04:49.491Z,13.70
2019-04-25T20:08:50.744Z,13.60
2019-04-25T20:12:59.378Z,13.60
2019-04-25T20:16:58.057Z,13.60
2019-04-25T20:20:56.607Z,13.50
2019-04-25T20:24:59.417Z,13.50
2019-04-25T20:28:55.508Z,13.40
2019-04-25T20:32:55.624Z,13.30
2019-04-25T20:36:54.495Z,13.20
2019-04-25T20:40:57.054Z,13.10
2019-04-25T20:44:58.136Z,13.10
2019-04-25T20:48:56.689Z,13.10
2019-04-25T20:52:55.567Z,12.90
2019-04-25T20:56:55.776Z,12.80
2019-04-25T21:00:56.232Z,12.80
2019-04-25T21:04:54.796Z,12.70
2019-04-25T21:08:55.461Z,12.70
2019-04-25T21:12:55.768Z,12.60
2019-04-25T21:17:02.918Z,12.70
2019-04-25T21:21:03.547Z,12.60
2019-04-25T21:25:02.469Z,12.50
2019-04-25T21:29:02.757Z,12.40
2019-04-25T21:33:12.828Z,12.30
2019-04-25T21:37:17.792Z,12.20
2019-04-25T21:41:53.413Z,12.00
2019-04-25T21:45:51.913Z,12.00
2019-04-25T21:49:52.310Z,11.80
2019-04-25T21:53:54.364Z,11.80
2019-04-25T21:58:04.213Z,11.70
2019-04-25T22:02:02.624Z,11.70
2019-04-25T22:06:01.229Z,11.60
2019-04-25T22:09:59.808Z,11.60
2019-04-25T22:13:59.523Z,11.70
2019-04-25T22:17:58.756Z,11.80
2019-04-25T22:22:00.604Z,11.90
2019-04-25T22:26:01.056Z,12.00
2019-04-25T22:30:03.426Z,12.10
2019-04-25T22:34:11.636Z,12.00
2019-04-25T22:38:13.183Z,12.10
2019-04-25T22:42:12.083Z,12.10
2019-04-25T22:46:25.360Z,12.10
2019-04-25T22:50:18.452Z,12.00
2019-04-25T22:54:17.266Z,12.10
2019-04-25T22:58:18.775Z,12.00
2019-04-25T23:02:25.200Z,12.00
2019-04-25T23:06:30.856Z,12.00
2019-04-25T23:10:29.415Z,12.10
2019-04-25T23:14:50.039Z,12.10
2019-04-25T23:18:58.013Z,12.10
2019-04-25T23:23:00.466Z,12.00
2019-04-25T23:27:12.821Z,12.00
2019-04-25T23:31:13.022Z,11.90
2019-04-25T23:35:24.192Z,11.60
2019-04-25T23:39:13.611Z,11.60
2019-04-25T23:43:13.540Z,11.70
2019-04-25T23:47:33.000Z,11.70
2019-04-25T23:51:37.129Z,11.70
2019-04-25T23:55:38.687Z,11.70
2019-04-25T23:59:42.936Z,11.60
